createdAt,value
2022-09-09T00:01:37.339Z,58.65
2022-09-09T00:03:50.421Z,59.04
2022-09-09T00:06:01.056Z,58.82
2022-09-09T00:08:05.158Z,58.92
2022-09-09T00:10:19.176Z,58.85
2022-09-09T00:12:26.378Z,59.02
2022-09-09T00:14:33.431Z,59.19
2022-09-09T00:16:38.578Z,59.31
2022-09-09T00:18:55.388Z,59.29
2022-09-09T00:21:08.994Z,59.45
2022-09-09T00:23:20.682Z,59.47
2022-09-09T00:25:31.101Z,59.47
2022-09-09T00:27:49.020Z,59.41
2022-09-09T00:30:12.283Z,59.74
2022-09-09T00:32:23.511Z,59.76
2022-09-09T00:34:27.212Z,59.98
2022-09-09T00:36:30.110Z,60.30
2022-09-09T00:38:53.828Z,60.28
2022-09-09T00:41:43.962Z,60.11
2022-09-09T00:43:50.974Z,60.67
2022-09-09T00:46:19.345Z,60.58
2022-09-09T00:48:23.998Z,60.73
2022-09-09T00:50:34.869Z,61.02
2022-09-09T00:52:55.238Z,61.07
2022-09-09T00:55:21.706Z,61.00
2022-09-09T00:57:34.367Z,61.07
2022-09-09T00:59:59.559Z,61.16
2022-09-09T01:02:02.766Z,61.11
2022-09-09T01:04:10.268Z,61.05
2022-09-09T01:06:26.941Z,60.79
2022-09-09T01:08:34.479Z,61.04
2022-09-09T01:10:54.395Z,61.22
2022-09-09T01:12:58.829Z,61.41
2022-09-09T01:15:11.486Z,61.49
2022-09-09T01:17:23.481Z,61.66
2022-09-09T01:19:34.369Z,61.66
2022-09-09T01:21:48.467Z,61.66
2022-09-09T01:24:32.583Z,62.06
2022-09-09T01:26:45.080Z,62.00
2022-09-09T01:28:50.854Z,61.91
2022-09-09T01:30:52.588Z,61.84
2022-09-09T01:32:59.930Z,62.21
2022-09-09T01:35:02.655Z,62.38
2022-09-09T01:37:09.302Z,62.74
2022-09-09T01:39:11.608Z,63.73
2022-09-09T01:41:13.389Z,64.16
2022-09-09T01:43:15.347Z,64.46
2022-09-09T01:45:17.006Z,64.69
2022-09-09T01:47:18.920Z,64.91
2022-09-09T01:49:20.678Z,65.33
2022-09-09T01:51:22.665Z,65.57
2022-09-09T01:53:24.892Z,65.48
2022-09-09T01:55:32.170Z,65.13
2022-09-09T01:58:18.804Z,64.36
2022-09-09T02:00:20.846Z,63.89
2022-09-09T02:02:33.394Z,63.81
2022-09-09T02:04:39.538Z,63.44
2022-09-09T02:06:41.587Z,63.03
2022-09-09T02:08:50.432Z,62.99
2022-09-09T02:10:55.831Z,62.84
2022-09-09T02:13:06.261Z,63.06
2022-09-09T02:15:21.807Z,63.14
2022-09-09T02:17:36.884Z,63.13
2022-09-09T02:19:50.090Z,63.10
2022-09-09T02:21:53.012Z,62.96
2022-09-09T02:23:55.227Z,62.67
2022-09-09T02:25:59.052Z,62.67
2022-09-09T02:28:01.218Z,62.23
2022-09-09T02:30:04.498Z,63.03
2022-09-09T02:32:10.542Z,63.55
2022-09-09T02:34:13.535Z,63.69
2022-09-09T02:36:17.329Z,63.73
2022-09-09T02:38:19.928Z,63.92
2022-09-09T02:40:22.413Z,64.75
2022-09-09T02:42:24.977Z,65.77
2022-09-09T02:44:26.609Z,66.73
2022-09-09T02:46:43.212Z,66.08
2022-09-09T02:49:03.009Z,65.46
2022-09-09T02:51:07.760Z,64.78
2022-09-09T02:53:17.511Z,64.24
2022-09-09T02:55:37.750Z,63.83
2022-09-09T02:57:40.085Z,63.42
2022-09-09T02:59:42.601Z,63.53
2022-09-09T03:01:45.088Z,63.18
2022-09-09T03:03:47.668Z,62.96
2022-09-09T03:05:49.364Z,63.15
2022-09-09T03:07:51.637Z,63.38
2022-09-09T03:09:56.077Z,63.36
2022-09-09T03:11:57.893Z,63.84
2022-09-09T03:13:59.532Z,64.72
2022-09-09T03:16:01.326Z,64.94
2022-09-09T03:18:03.009Z,64.81
2022-09-09T03:20:05.489Z,65.04
2022-09-09T03:22:07.171Z,65.58
2022-09-09T03:24:08.745Z,65.95
2022-09-09T03:26:10.332Z,65.78
2022-09-09T03:28:12.275Z,65.34
2022-09-09T03:30:14.990Z,65.10
2022-09-09T03:32:18.283Z,64.72
2022-09-09T03:34:20.118Z,64.55
2022-09-09T03:36:21.755Z,63.80
2022-09-09T03:38:26.758Z,62.99
2022-09-09T03:40:28.412Z,62.56
2022-09-09T03:42:30.180Z,62.25
2022-09-09T03:44:31.929Z,62.29
2022-09-09T03:46:33.594Z,62.40
2022-09-09T03:48:35.370Z,62.20
2022-09-09T03:50:37.065Z,62.07
2022-09-09T03:52:40.032Z,62.03
2022-09-09T03:54:43.654Z,62.17
2022-09-09T03:56:45.399Z,61.92
2022-09-09T03:58:47.066Z,61.96
2022-09-09T04:00:55.965Z,61.99
2022-09-09T04:02:58.757Z,62.29
2022-09-09T04:05:00.747Z,62.33
2022-09-09T04:07:02.928Z,62.37
2022-09-09T04:09:04.633Z,62.34
2022-09-09T04:11:07.965Z,62.50
2022-09-09T04:13:09.612Z,62.65
2022-09-09T04:15:11.683Z,62.57
2022-09-09T04:17:13.346Z,62.28
2022-09-09T04:19:15.429Z,62.19
2022-09-09T04:21:17.250Z,62.25
2022-09-09T04:23:22.428Z,62.38
2022-09-09T04:25:24.118Z,62.38
2022-09-09T04:27:25.733Z,62.35
2022-09-09T04:29:27.308Z,62.17
2022-09-09T04:31:28.985Z,62.31
2022-09-09T04:33:32.287Z,62.26
2022-09-09T04:35:34.991Z,61.87
2022-09-09T04:37:36.709Z,61.82
2022-09-09T04:39:38.370Z,61.58
2022-09-09T04:41:40.007Z,61.37
2022-09-09T04:43:41.907Z,61.19
2022-09-09T04:45:44.455Z,61.14
2022-09-09T04:47:46.446Z,61.27
2022-09-09T04:49:48.604Z,61.57
2022-09-09T04:51:50.581Z,61.42
2022-09-09T04:53:52.424Z,61.14
2022-09-09T04:56:08.365Z,61.07
2022-09-09T04:58:09.937Z,61.09
2022-09-09T05:00:12.168Z,60.93
2022-09-09T05:02:14.087Z,60.78
2022-09-09T05:04:18.241Z,60.60
2022-09-09T05:06:21.848Z,60.50
2022-09-09T05:08:23.905Z,59.87
2022-09-09T05:10:25.549Z,59.75
2022-09-09T05:12:27.763Z,59.63
2022-09-09T05:14:31.099Z,59.34
2022-09-09T05:16:32.773Z,59.49
2022-09-09T05:18:34.480Z,59.33
2022-09-09T05:20:36.317Z,59.28
2022-09-09T05:22:37.890Z,58.94
2022-09-09T05:24:39.810Z,58.53
2022-09-09T05:26:41.579Z,58.54
2022-09-09T05:28:43.227Z,58.39
2022-09-09T05:30:44.805Z,58.82
2022-09-09T05:32:47.864Z,59.74
2022-09-09T05:34:49.489Z,59.89
2022-09-09T05:36:53.184Z,59.85
2022-09-09T05:38:57.468Z,59.60
2022-09-09T05:40:59.116Z,59.64
2022-09-09T05:43:01.604Z,59.71
2022-09-09T05:45:03.594Z,59.34
2022-09-09T05:47:05.377Z,59.15
2022-09-09T05:49:07.528Z,59.14
2022-09-09T05:51:14.233Z,58.86
2022-09-09T05:53:15.812Z,58.79
2022-09-09T05:55:17.577Z,58.53
2022-09-09T05:57:20.451Z,57.83
2022-09-09T05:59:24.240Z,57.15
2022-09-09T06:01:34.082Z,56.74
2022-09-09T06:03:40.458Z,56.25
2022-09-09T06:05:42.033Z,56.88
2022-09-09T06:07:45.979Z,56.92
2022-09-09T06:09:48.047Z,58.27
2022-09-09T06:11:49.649Z,58.61
2022-09-09T06:13:55.744Z,60.07
2022-09-09T06:15:57.504Z,58.54
2022-09-09T06:17:59.174Z,58.62
2022-09-09T06:20:00.818Z,57.54
2022-09-09T06:22:02.558Z,57.40
2022-09-09T06:24:04.938Z,56.62
2022-09-09T06:26:11.808Z,56.44
2022-09-09T06:28:14.616Z,55.54
2022-09-09T06:30:18.189Z,56.05
2022-09-09T06:32:19.643Z,55.64
2022-09-09T06:34:21.863Z,55.40
2022-09-09T06:36:26.102Z,55.93
2022-09-09T06:38:28.817Z,55.60
2022-09-09T06:40:31.458Z,55.97
2022-09-09T06:42:33.068Z,55.83
2022-09-09T06:44:35.597Z,55.56
2022-09-09T06:46:37.403Z,55.01
2022-09-09T06:48:42.794Z,54.29
2022-09-09T06:50:44.582Z,52.86
2022-09-09T06:52:48.756Z,53.00
2022-09-09T06:54:50.921Z,53.03
2022-09-09T06:56:52.863Z,51.80
2022-09-09T06:58:55.689Z,52.56
2022-09-09T07:01:07.431Z,53.03
2022-09-09T07:03:11.157Z,53.14
2022-09-09T07:05:12.890Z,53.23
2022-09-09T07:07:16.492Z,53.32
2022-09-09T07:09:18.141Z,53.07
2022-09-09T07:11:21.340Z,52.68
2022-09-09T07:13:26.754Z,52.12
2022-09-09T07:15:28.364Z,52.80
2022-09-09T07:17:30.251Z,53.06
2022-09-09T07:19:31.890Z,52.45
2022-09-09T07:21:34.519Z,52.60
2022-09-09T07:23:39.614Z,52.00
2022-09-09T07:25:46.401Z,51.52
2022-09-09T07:27:48.091Z,51.22
2022-09-09T07:29:49.736Z,50.37
2022-09-09T07:31:51.377Z,50.80
2022-09-09T07:33:53.109Z,51.14
2022-09-09T07:35:55.290Z,50.97
2022-09-09T07:37:57.181Z,50.10
2022-09-09T07:39:59.824Z,49.64
2022-09-09T07:42:01.579Z,49.66
2022-09-09T07:44:07.766Z,49.24
2022-09-09T07:46:10.955Z,49.69
2022-09-09T07:48:12.727Z,49.40
2022-09-09T07:50:14.369Z,49.55
2022-09-09T07:52:18.263Z,50.12
2022-09-09T07:54:24.478Z,49.72
2022-09-09T07:56:27.274Z,49.30
2022-09-09T07:58:28.852Z,49.62
2022-09-09T08:00:30.437Z,49.87
2022-09-09T08:02:32.134Z,49.56
2022-09-09T08:04:33.899Z,49.21
2022-09-09T08:06:40.800Z,48.89
2022-09-09T08:08:44.233Z,48.30
2022-09-09T08:10:45.667Z,48.30
2022-09-09T08:13:01.505Z,47.88
2022-09-09T08:15:09.213Z,47.38
2022-09-09T08:17:10.978Z,46.62
2022-09-09T08:19:13.081Z,45.79
2022-09-09T08:21:18.806Z,45.97
2022-09-09T08:23:20.430Z,46.09
2022-09-09T08:25:22.079Z,46.01
2022-09-09T08:27:23.791Z,45.89
2022-09-09T08:29:25.430Z,45.52
2022-09-09T08:31:32.659Z,45.41
2022-09-09T08:33:34.659Z,46.07
2022-09-09T08:35:36.480Z,46.21
2022-09-09T08:37:38.227Z,46.25
2022-09-09T08:39:39.867Z,45.67
2022-09-09T08:42:12.893Z,46.47
2022-09-09T08:44:37.817Z,46.06
2022-09-09T08:46:51.652Z,46.46
2022-09-09T08:49:05.030Z,46.49
2022-09-09T08:51:09.772Z,46.37
2022-09-09T08:53:14.236Z,45.73
2022-09-09T08:55:27.030Z,45.84
2022-09-09T08:57:30.203Z,45.90
2022-09-09T08:59:31.824Z,45.98
2022-09-09T09:01:52.662Z,46.45
2022-09-09T09:03:54.237Z,45.83
2022-09-09T09:06:07.920Z,45.58
2022-09-09T09:08:21.949Z,45.51
2022-09-09T09:10:41.654Z,45.25
2022-09-09T09:12:45.603Z,45.33
2022-09-09T09:14:49.174Z,45.21
2022-09-09T09:17:01.340Z,44.26
2022-09-09T09:19:04.499Z,45.02
2022-09-09T09:21:31.195Z,45.32
2022-09-09T09:23:44.971Z,45.05
2022-09-09T09:25:46.486Z,45.25
2022-09-09T09:28:11.505Z,45.60
2022-09-09T09:30:27.134Z,45.55
2022-09-09T09:32:34.385Z,45.36
2022-09-09T09:34:36.162Z,45.37
2022-09-09T09:36:43.528Z,45.05
2022-09-09T09:41:35.691Z,44.38
2022-09-09T09:43:41.772Z,44.85
2022-09-09T09:46:06.825Z,44.12
2022-09-09T09:48:14.124Z,43.85
2022-09-09T09:50:21.561Z,44.05
2022-09-09T09:52:25.674Z,44.05
2022-09-09T09:54:32.917Z,44.60
2022-09-09T09:56:34.790Z,44.82
2022-09-09T09:58:45.571Z,44.55
2022-09-09T10:00:52.238Z,44.48
2022-09-09T10:02:54.365Z,44.63
2022-09-09T10:05:20.987Z,44.92
2022-09-09T10:07:24.823Z,45.02
2022-09-09T10:09:29.559Z,44.89
2022-09-09T10:12:01.398Z,45.21
2022-09-09T10:14:22.813Z,45.17
2022-09-09T10:16:34.853Z,44.75
2022-09-09T10:18:38.497Z,44.96
2022-09-09T10:21:03.844Z,44.87
2022-09-09T10:23:43.692Z,44.90
2022-09-09T10:25:58.744Z,45.28
2022-09-09T10:28:12.497Z,44.96
2022-09-09T10:30:14.042Z,45.12
2022-09-09T10:32:21.589Z,45.23
2022-09-09T10:34:41.861Z,45.11
2022-09-09T10:36:47.870Z,45.14
2022-09-09T10:38:58.714Z,44.96
2022-09-09T10:41:16.795Z,45.13
2022-09-09T10:43:42.698Z,45.37
2022-09-09T10:46:41.798Z,45.62
2022-09-09T10:48:54.664Z,45.76
2022-09-09T10:51:30.130Z,46.05
2022-09-09T10:54:03.700Z,45.82
2022-09-09T10:56:14.818Z,46.06
2022-09-09T10:58:26.499Z,46.12
2022-09-09T11:00:58.035Z,46.70
2022-09-09T11:03:03.205Z,46.73
2022-09-09T11:05:06.328Z,47.29
2022-09-09T11:07:13.757Z,48.22
2022-09-09T11:09:18.744Z,48.62
2022-09-09T11:11:33.512Z,48.87
2022-09-09T11:13:59.662Z,49.04
2022-09-09T11:16:29.666Z,49.91
2022-09-09T11:18:33.026Z,50.08
2022-09-09T11:20:36.020Z,49.82
2022-09-09T11:22:50.189Z,50.05
2022-09-09T11:25:01.356Z,50.16
2022-09-09T11:27:20.072Z,50.83
2022-09-09T11:29:45.206Z,51.16
2022-09-09T11:32:20.794Z,51.08
2022-09-09T11:34:53.614Z,50.38
2022-09-09T11:37:15.684Z,49.86
2022-09-09T11:39:32.110Z,49.87
2022-09-09T11:41:37.825Z,48.96
2022-09-09T11:43:47.342Z,49.17
2022-09-09T11:45:58.719Z,48.99
2022-09-09T11:48:04.752Z,48.35
2022-09-09T11:50:15.473Z,48.00
2022-09-09T11:52:25.033Z,47.91
2022-09-09T11:54:33.478Z,47.92
2022-09-09T11:56:45.011Z,47.68
2022-09-09T11:58:59.453Z,47.29
2022-09-09T12:01:01.790Z,47.06
2022-09-09T12:03:04.837Z,47.12
2022-09-09T12:05:09.842Z,47.52
2022-09-09T12:07:12.380Z,48.26
2022-09-09T12:10:02.660Z,48.00
2022-09-09T12:12:23.398Z,47.28
2022-09-09T12:14:55.715Z,47.02
2022-09-09T12:16:57.345Z,47.72
2022-09-09T12:19:23.351Z,47.65
2022-09-09T12:22:00.380Z,48.24
2022-09-09T12:24:07.372Z,47.27
2022-09-09T12:26:38.357Z,46.57
2022-09-09T12:29:05.582Z,46.45
2022-09-09T12:31:14.221Z,45.32
2022-09-09T12:33:18.806Z,45.02
2022-09-09T12:35:27.498Z,45.64
2022-09-09T12:37:42.503Z,45.93
2022-09-09T12:39:51.870Z,45.17
2022-09-09T12:41:58.436Z,45.56
2022-09-09T12:44:07.526Z,44.49
2022-09-09T12:46:11.692Z,43.91
2022-09-09T12:48:16.900Z,43.72
2022-09-09T12:50:27.382Z,44.08
2022-09-09T12:52:33.369Z,44.13
2022-09-09T12:54:37.236Z,44.80
2022-09-09T12:56:38.898Z,45.24
2022-09-09T12:58:47.919Z,45.04
2022-09-09T13:00:53.465Z,45.91
2022-09-09T13:03:02.579Z,46.22
2022-09-09T13:05:14.994Z,46.00
2022-09-09T13:07:17.516Z,45.50
2022-09-09T13:09:19.387Z,45.50
2022-09-09T13:11:25.394Z,45.74
2022-09-09T13:13:36.270Z,46.19
2022-09-09T13:15:37.957Z,46.54
2022-09-09T13:17:40.511Z,46.76
2022-09-09T13:19:47.565Z,46.50
2022-09-09T13:21:49.171Z,46.41
2022-09-09T13:23:53.224Z,46.10
2022-09-09T13:26:19.260Z,46.26
2022-09-09T13:28:26.684Z,46.09
2022-09-09T13:30:30.463Z,45.81
2022-09-09T13:32:32.627Z,46.59
2022-09-09T13:34:37.265Z,46.24
2022-09-09T13:36:38.871Z,47.00
2022-09-09T13:38:52.604Z,46.37
2022-09-09T13:40:58.684Z,46.70
2022-09-09T13:43:00.660Z,46.58
2022-09-09T13:45:05.248Z,46.32
2022-09-09T13:47:10.871Z,47.14
2022-09-09T13:49:12.801Z,46.51
2022-09-09T13:51:33.424Z,46.60
2022-09-09T13:53:35.133Z,46.24
2022-09-09T13:55:37.624Z,45.60
2022-09-09T13:57:39.202Z,44.86
2022-09-09T14:00:03.686Z,45.17
2022-09-09T14:02:03.315Z,44.82
2022-09-09T14:04:07.437Z,44.65
2022-09-09T14:06:09.093Z,44.99
2022-09-09T14:08:38.199Z,44.63
2022-09-09T14:10:40.054Z,44.10
2022-09-09T14:12:42.414Z,43.93
2022-09-09T14:14:44.878Z,43.68
2022-09-09T14:16:46.732Z,43.22
2022-09-09T14:18:48.825Z,43.22
2022-09-09T14:20:51.338Z,43.81
2022-09-09T14:22:54.484Z,44.44
2022-09-09T14:24:56.113Z,44.83
2022-09-09T14:26:57.772Z,45.00
2022-09-09T14:28:59.813Z,45.40
2022-09-09T14:31:02.382Z,45.58
2022-09-09T14:33:04.343Z,45.18
2022-09-09T14:35:06.136Z,45.43
2022-09-09T14:37:07.802Z,45.35
2022-09-09T14:39:09.410Z,45.52
2022-09-09T14:41:17.954Z,44.76
2022-09-09T14:43:19.784Z,45.40
2022-09-09T14:45:22.358Z,44.93
2022-09-09T14:47:24.116Z,45.52
2022-09-09T14:49:26.060Z,45.42
2022-09-09T14:51:30.781Z,45.06
2022-09-09T14:53:32.382Z,45.07
2022-09-09T14:55:34.308Z,45.05
2022-09-09T14:57:36.815Z,45.43
2022-09-09T14:59:38.438Z,45.71
2022-09-09T15:01:40.230Z,45.26
2022-09-09T15:03:42.946Z,46.07
2022-09-09T15:05:44.512Z,46.34
2022-09-09T15:07:46.327Z,46.34
2022-09-09T15:09:49.662Z,46.38
2022-09-09T15:11:51.322Z,46.65
2022-09-09T15:13:54.033Z,46.50
2022-09-09T15:15:55.742Z,46.55
2022-09-09T15:17:58.109Z,46.35
2022-09-09T15:19:59.664Z,46.64
2022-09-09T15:22:01.479Z,46.21
2022-09-09T15:24:03.580Z,46.00
2022-09-09T15:26:05.953Z,45.73
2022-09-09T15:28:07.760Z,45.91
2022-09-09T15:30:10.208Z,45.40
2022-09-09T15:32:11.823Z,44.82
2022-09-09T15:34:14.916Z,44.44
2022-09-09T15:36:22.959Z,44.93
2022-09-09T15:38:24.794Z,44.98
2022-09-09T15:40:26.450Z,45.01
2022-09-09T15:42:27.987Z,44.83
2022-09-09T15:44:29.586Z,45.38
2022-09-09T15:46:37.187Z,45.56
2022-09-09T15:48:39.580Z,45.99
2022-09-09T15:50:41.196Z,46.02
2022-09-09T15:52:43.013Z,45.95
2022-09-09T15:54:44.864Z,46.60
2022-09-09T15:56:47.643Z,46.61
2022-09-09T15:58:49.284Z,46.51
2022-09-09T16:00:51.236Z,46.65
2022-09-09T16:02:53.248Z,46.85
2022-09-09T16:04:54.845Z,46.66
2022-09-09T16:06:59.680Z,46.37
2022-09-09T16:09:04.318Z,46.70
2022-09-09T16:11:15.547Z,47.18
2022-09-09T16:13:17.414Z,47.17
2022-09-09T16:15:21.192Z,47.29
2022-09-09T16:17:22.820Z,48.10
2022-09-09T16:19:24.497Z,47.84
2022-09-09T16:21:30.254Z,48.34
2022-09-09T16:23:33.534Z,48.87
2022-09-09T16:25:35.505Z,48.53
2022-09-09T16:27:37.133Z,48.92
2022-09-09T16:29:38.756Z,48.96
2022-09-09T16:31:41.616Z,49.20
2022-09-09T16:33:43.327Z,48.98
2022-09-09T16:35:45.201Z,49.07
2022-09-09T16:37:46.996Z,49.32
2022-09-09T16:39:48.681Z,49.37
2022-09-09T16:41:51.079Z,49.28
2022-09-09T16:43:57.154Z,49.69
2022-09-09T16:45:58.876Z,49.76
2022-09-09T16:48:01.537Z,50.00
2022-09-09T16:50:03.410Z,50.02
2022-09-09T16:52:05.042Z,50.05
2022-09-09T16:54:08.305Z,49.79
2022-09-09T16:56:12.169Z,50.16
2022-09-09T16:58:13.842Z,49.99
2022-09-09T17:00:17.452Z,50.34
2022-09-09T17:02:19.290Z,50.32
2022-09-09T17:04:25.157Z,49.85
2022-09-09T17:06:27.046Z,50.38
2022-09-09T17:08:31.491Z,50.29
2022-09-09T17:10:33.161Z,50.43
2022-09-09T17:12:40.719Z,50.26
2022-09-09T17:14:44.047Z,50.33
2022-09-09T17:16:45.889Z,50.40
2022-09-09T17:18:47.695Z,50.41
2022-09-09T17:20:49.331Z,50.49
2022-09-09T17:22:51.165Z,50.71
2022-09-09T17:24:52.797Z,50.69
2022-09-09T17:26:55.342Z,50.81
2022-09-09T17:28:59.800Z,50.76
2022-09-09T17:31:03.837Z,50.75
2022-09-09T17:33:05.576Z,50.81
2022-09-09T17:35:07.375Z,50.76
2022-09-09T17:37:09.037Z,50.92
2022-09-09T17:39:10.901Z,50.79
2022-09-09T17:41:16.400Z,50.80
2022-09-09T17:43:18.726Z,50.97
2022-09-09T17:45:20.534Z,51.06
2022-09-09T17:47:22.213Z,50.87
2022-09-09T17:49:23.846Z,51.40
2022-09-09T17:51:28.961Z,51.62
2022-09-09T17:53:31.781Z,51.58
2022-09-09T17:55:34.469Z,51.62
2022-09-09T17:57:36.419Z,52.04
2022-09-09T17:59:38.062Z,52.33
2022-09-09T18:01:42.203Z,52.88
2022-09-09T18:03:45.147Z,53.21
2022-09-09T18:05:46.757Z,53.34
2022-09-09T18:07:49.127Z,53.82
2022-09-09T18:09:50.760Z,53.48
2022-09-09T18:11:56.396Z,53.73
2022-09-09T18:14:00.759Z,53.87
2022-09-09T18:16:02.654Z,53.61
2022-09-09T18:18:06.992Z,53.73
2022-09-09T18:20:09.193Z,53.85
2022-09-09T18:22:10.795Z,53.97
2022-09-09T18:24:13.951Z,54.20
2022-09-09T18:26:24.602Z,54.27
2022-09-09T18:28:27.740Z,54.53
2022-09-09T18:30:30.451Z,54.84
2022-09-09T18:32:32.133Z,55.15
2022-09-09T18:34:33.887Z,54.93
2022-09-09T18:36:49.479Z,54.90
2022-09-09T18:38:51.574Z,55.27
2022-09-09T18:40:53.457Z,55.47
2022-09-09T18:42:55.042Z,55.40
2022-09-09T18:44:56.625Z,55.47
2022-09-09T18:46:58.772Z,55.38
2022-09-09T18:49:00.751Z,55.37
2022-09-09T18:51:07.006Z,55.58
2022-09-09T18:53:09.481Z,55.59
2022-09-09T18:55:11.125Z,55.60
2022-09-09T18:57:12.756Z,55.81
2022-09-09T18:59:19.679Z,55.80
2022-09-09T19:01:22.248Z,56.11
2022-09-09T19:03:25.644Z,55.92
2022-09-09T19:05:27.352Z,56.30
2022-09-09T19:07:28.954Z,56.31
2022-09-09T19:09:32.578Z,56.05
2022-09-09T19:11:34.554Z,56.24
2022-09-09T19:13:36.702Z,56.01
2022-09-09T19:15:40.070Z,56.34
2022-09-09T19:17:41.935Z,56.36
2022-09-09T19:19:43.752Z,56.19
2022-09-09T19:21:45.668Z,56.41
2022-09-09T19:23:48.100Z,56.27
2022-09-09T19:25:50.509Z,56.23
2022-09-09T19:27:52.391Z,56.17
2022-09-09T19:29:57.011Z,55.80
2022-09-09T19:34:21.989Z,55.86
2022-09-09T19:36:24.982Z,55.88
2022-09-09T19:38:26.809Z,55.77
2022-09-09T19:40:30.469Z,55.61
2022-09-09T19:42:32.215Z,55.70
2022-09-09T19:44:33.857Z,55.44
2022-09-09T19:46:37.230Z,55.38
2022-09-09T19:48:41.061Z,55.63
2022-09-09T19:50:44.446Z,55.50
2022-09-09T19:52:46.045Z,55.43
2022-09-09T19:54:47.855Z,55.34
2022-09-09T19:56:49.455Z,54.96
2022-09-09T19:58:52.249Z,54.88
2022-09-09T20:00:54.041Z,55.26
2022-09-09T20:03:17.559Z,55.32
2022-09-09T20:05:17.321Z,54.97
2022-09-09T20:07:19.285Z,55.19
2022-09-09T20:09:21.734Z,55.13
2022-09-09T20:11:23.791Z,55.21
2022-09-09T20:13:25.493Z,55.06
2022-09-09T20:15:27.157Z,55.12
2022-09-09T20:17:28.826Z,55.13
2022-09-09T20:19:31.225Z,55.23
2022-09-09T20:21:38.407Z,55.70
2022-09-09T20:23:40.748Z,55.83
2022-09-09T20:25:43.509Z,56.15
2022-09-09T20:27:45.504Z,55.60
2022-09-09T20:29:47.277Z,55.69
2022-09-09T20:31:49.177Z,55.71
2022-09-09T20:33:52.093Z,55.59
2022-09-09T20:35:54.241Z,55.55
2022-09-09T20:37:55.818Z,55.93
2022-09-09T20:39:57.728Z,56.13
2022-09-09T20:41:59.417Z,56.05
2022-09-09T20:44:03.826Z,56.15
2022-09-09T20:46:05.650Z,56.07
2022-09-09T20:48:07.573Z,55.76
2022-09-09T20:50:10.565Z,55.69
2022-09-09T20:52:13.243Z,55.75
2022-09-09T20:54:17.607Z,55.66
2022-09-09T20:56:20.320Z,55.90
2022-09-09T20:58:21.890Z,55.61
2022-09-09T21:00:23.701Z,55.89
2022-09-09T21:02:25.278Z,55.77
2022-09-09T21:04:27.885Z,55.82
2022-09-09T21:06:29.516Z,55.88
2022-09-09T21:08:31.594Z,55.84
2022-09-09T21:10:33.177Z,56.51
2022-09-09T21:12:34.999Z,56.67
2022-09-09T21:14:37.037Z,56.80
2022-09-09T21:16:38.679Z,56.45
2022-09-09T21:18:40.750Z,56.49
2022-09-09T21:20:45.120Z,56.78
2022-09-09T21:22:46.966Z,56.65
2022-09-09T21:24:48.555Z,56.57
2022-09-09T21:26:50.175Z,56.39
2022-09-09T21:28:53.711Z,56.90
2022-09-09T21:30:56.139Z,56.82
2022-09-09T21:32:58.174Z,56.88
2022-09-09T21:34:59.897Z,57.37
2022-09-09T21:37:02.331Z,57.77
2022-09-09T21:39:04.111Z,57.70
2022-09-09T21:41:07.749Z,57.97
2022-09-09T21:43:12.698Z,58.03
2022-09-09T21:45:14.762Z,57.88
2022-09-09T21:47:16.598Z,57.95
2022-09-09T21:49:18.160Z,58.91
2022-09-09T21:51:19.789Z,59.61
2022-09-09T21:53:21.414Z,60.63
2022-09-09T21:55:23.017Z,61.15
2022-09-09T21:57:25.150Z,61.12
2022-09-09T21:59:28.048Z,60.68
2022-09-09T22:01:33.155Z,60.56
2022-09-09T22:03:37.945Z,60.20
2022-09-09T22:05:42.790Z,60.44
2022-09-09T22:07:44.477Z,59.90
2022-09-09T22:09:46.121Z,59.63
2022-09-09T22:11:48.127Z,59.89
2022-09-09T22:13:50.259Z,59.43
2022-09-09T22:15:51.909Z,59.03
2022-09-09T22:17:53.931Z,59.21
2022-09-09T22:19:55.841Z,59.03
2022-09-09T22:21:57.606Z,58.82
2022-09-09T22:24:01.743Z,59.14
2022-09-09T22:26:04.387Z,59.50
2022-09-09T22:28:07.751Z,59.95
2022-09-09T22:30:10.137Z,59.73
2022-09-09T22:32:11.787Z,60.20
2022-09-09T22:34:13.393Z,60.09
2022-09-09T22:36:15.120Z,59.58
2022-09-09T22:38:17.326Z,59.81
2022-09-09T22:40:18.968Z,60.96
2022-09-09T22:42:20.824Z,61.43
2022-09-09T22:44:28.615Z,62.08
2022-09-09T22:46:30.295Z,62.34
2022-09-09T22:48:33.217Z,62.51
2022-09-09T22:50:38.984Z,62.28
2022-09-09T22:52:43.651Z,62.04
2022-09-09T22:54:46.816Z,61.79
2022-09-09T22:56:51.673Z,61.09
2022-09-09T22:58:55.805Z,60.65
2022-09-09T23:01:00.279Z,60.58
2022-09-09T23:03:01.865Z,60.29
2022-09-09T23:05:05.137Z,60.13
2022-09-09T23:07:08.548Z,60.18
2022-09-09T23:09:12.023Z,60.46
2022-09-09T23:11:13.728Z,60.30
2022-09-09T23:13:15.592Z,60.80
2022-09-09T23:15:17.400Z,60.60
2022-09-09T23:17:21.010Z,60.62
2022-09-09T23:19:22.572Z,60.96
2022-09-09T23:21:28.252Z,60.81
2022-09-09T23:23:29.929Z,60.71
2022-09-09T23:25:31.542Z,61.45
2022-09-09T23:27:33.591Z,61.41
2022-09-09T23:29:35.176Z,61.25
2022-09-09T23:31:38.653Z,61.26
2022-09-09T23:33:40.611Z,61.22
2022-09-09T23:35:42.205Z,61.19
2022-09-09T23:37:44.031Z,61.55
2022-09-09T23:39:45.697Z,61.19
2022-09-09T23:41:50.289Z,61.32
2022-09-09T23:43:53.229Z,61.42
2022-09-09T23:45:56.981Z,61.67
2022-09-09T23:47:58.612Z,61.43
2022-09-09T23:50:00.410Z,61.19
2022-09-09T23:52:06.382Z,61.22
2022-09-09T23:54:09.831Z,61.63
2022-09-09T23:56:12.852Z,61.36
2022-09-09T23:58:17.642Z,61.55
